createdAt,value
2018-12-21T00:00:16.692Z,63.80
2018-12-21T00:01:16.662Z,64.80
2018-12-21T00:02:16.628Z,59.70
2018-12-21T00:03:16.597Z,67.20
2018-12-21T00:04:16.568Z,63.50
2018-12-21T00:05:16.541Z,56.40
2018-12-21T00:06:16.508Z,66.90
2018-12-21T00:07:16.477Z,70.00
2018-12-21T00:08:16.440Z,67.10
2018-12-21T00:09:16.409Z,67.20
2018-12-21T00:10:16.383Z,64.90
2018-12-21T00:11:16.379Z,63.40
2018-12-21T00:12:16.319Z,61.80
2018-12-21T00:13:16.287Z,68.60
2018-12-21T00:14:16.256Z,65.20
2018-12-21T00:15:16.228Z,65.50
2018-12-21T00:16:16.194Z,66.50
2018-12-21T00:17:16.166Z,63.80
2018-12-21T00:18:16.134Z,67.80
2018-12-21T00:19:16.100Z,65.50
2018-12-21T00:20:16.073Z,66.80
2018-12-21T00:21:21.763Z,68.00
2018-12-21T00:22:16.009Z,67.30
2018-12-21T00:23:15.977Z,65.60
2018-12-21T00:24:15.946Z,63.60
2018-12-21T00:25:15.914Z,66.40
2018-12-21T00:26:15.885Z,57.70
2018-12-21T00:27:15.853Z,57.40
2018-12-21T00:28:15.823Z,60.60
2018-12-21T00:29:15.795Z,64.80
2018-12-21T00:30:15.760Z,56.30
2018-12-21T00:31:17.851Z,56.90
2018-12-21T00:32:15.698Z,60.40
2018-12-21T00:33:15.673Z,59.40
2018-12-21T00:34:15.638Z,62.40
2018-12-21T00:35:15.606Z,58.70
2018-12-21T00:36:15.576Z,60.50
2018-12-21T00:37:15.548Z,58.00
2018-12-21T00:38:15.513Z,63.00
2018-12-21T00:39:15.483Z,62.40
2018-12-21T00:40:15.455Z,64.80
2018-12-21T00:41:15.421Z,63.50
2018-12-21T00:42:15.391Z,63.30
2018-12-21T00:43:15.375Z,62.50
2018-12-21T00:44:15.332Z,60.80
2018-12-21T00:45:15.299Z,59.50
2018-12-21T00:46:15.267Z,57.50
2018-12-21T00:47:15.241Z,59.20
2018-12-21T00:48:15.208Z,58.20
2018-12-21T00:49:15.179Z,57.30
2018-12-21T00:50:15.145Z,58.80
2018-12-21T00:51:15.111Z,60.50
2018-12-21T00:52:15.083Z,59.00
2018-12-21T00:53:15.051Z,60.50
2018-12-21T00:54:15.021Z,55.60
2018-12-21T00:55:14.992Z,56.10
2018-12-21T00:56:14.958Z,63.10
2018-12-21T00:57:14.928Z,61.00
2018-12-21T00:58:14.898Z,53.50
2018-12-21T00:59:14.866Z,54.30
2018-12-21T01:00:14.836Z,57.60
2018-12-21T01:01:14.806Z,63.40
2018-12-21T01:02:14.774Z,62.00
2018-12-21T01:03:14.751Z,60.00
2018-12-21T01:04:14.712Z,59.60
2018-12-21T01:05:14.684Z,57.70
2018-12-21T01:06:14.654Z,58.40
2018-12-21T01:07:14.619Z,68.80
2018-12-21T01:08:14.590Z,62.80
2018-12-21T01:09:14.563Z,61.80
2018-12-21T01:10:14.531Z,62.60
2018-12-21T01:11:14.563Z,56.10
2018-12-21T01:12:14.466Z,52.90
2018-12-21T01:13:14.436Z,45.90
2018-12-21T01:14:14.407Z,54.80
2018-12-21T01:15:14.375Z,62.50
2018-12-21T01:16:14.346Z,60.30
2018-12-21T01:17:14.316Z,58.70
2018-12-21T01:18:14.282Z,56.70
2018-12-21T01:19:14.252Z,61.60
2018-12-21T01:20:14.223Z,57.60
2018-12-21T01:21:14.189Z,49.20
2018-12-21T01:22:14.160Z,53.20
2018-12-21T01:23:14.129Z,56.30
2018-12-21T01:24:14.101Z,59.00
2018-12-21T01:25:14.070Z,55.70
2018-12-21T01:26:14.037Z,57.70
2018-12-21T01:27:14.007Z,56.50
2018-12-21T01:28:13.977Z,59.40
2018-12-21T01:29:13.949Z,61.80
2018-12-21T01:30:13.916Z,60.60
2018-12-21T01:31:13.884Z,60.10
2018-12-21T01:32:13.856Z,56.90
2018-12-21T01:33:13.827Z,57.10
2018-12-21T01:34:13.839Z,59.10
2018-12-21T01:35:13.763Z,60.00
2018-12-21T01:36:13.730Z,58.40
2018-12-21T01:37:13.700Z,60.50
2018-12-21T01:38:13.671Z,63.40
2018-12-21T01:39:13.639Z,55.10
2018-12-21T01:40:13.609Z,59.00
2018-12-21T01:41:13.579Z,61.00
2018-12-21T01:42:13.574Z,59.40
2018-12-21T01:43:13.518Z,62.20
2018-12-21T01:44:13.488Z,61.10
2018-12-21T01:45:13.456Z,66.20
2018-12-21T01:46:13.426Z,60.30
2018-12-21T01:47:13.395Z,65.10
2018-12-21T01:48:13.364Z,59.30
2018-12-21T01:49:13.334Z,63.30
2018-12-21T01:50:13.304Z,63.90
2018-12-21T01:51:13.273Z,61.10
2018-12-21T01:52:13.242Z,59.90
2018-12-21T01:53:13.211Z,67.60
2018-12-21T01:54:13.180Z,61.50
2018-12-21T01:55:13.159Z,63.80
2018-12-21T01:56:13.120Z,61.70
2018-12-21T01:57:13.090Z,66.10
2018-12-21T01:58:13.063Z,64.80
2018-12-21T01:59:13.027Z,64.70
2018-12-21T02:00:13.000Z,62.70
2018-12-21T02:01:12.966Z,66.00
2018-12-21T02:02:12.937Z,61.00
2018-12-21T02:03:12.918Z,61.20
2018-12-21T02:04:12.875Z,63.40
2018-12-21T02:05:12.901Z,62.70
2018-12-21T02:06:12.815Z,58.80
2018-12-21T02:07:12.782Z,69.10
2018-12-21T02:08:12.753Z,63.70
2018-12-21T02:09:12.723Z,63.40
2018-12-21T02:10:12.697Z,62.40
2018-12-21T02:11:12.664Z,59.30
2018-12-21T02:12:12.629Z,64.90
2018-12-21T02:13:12.599Z,68.20
2018-12-21T02:14:12.569Z,66.50
2018-12-21T02:15:12.538Z,71.70
2018-12-21T02:16:12.508Z,72.70
2018-12-21T02:17:12.477Z,74.30
2018-12-21T02:18:12.453Z,80.60
2018-12-21T02:19:12.415Z,74.50
2018-12-21T02:20:12.391Z,73.20
2018-12-21T02:21:12.356Z,72.20
2018-12-21T02:22:12.325Z,76.20
2018-12-21T02:23:12.291Z,80.10
2018-12-21T02:24:12.262Z,74.10
2018-12-21T02:25:12.233Z,74.40
2018-12-21T02:26:12.280Z,75.10
2018-12-21T02:27:12.172Z,76.40
2018-12-21T02:28:12.137Z,78.10
2018-12-21T02:29:12.109Z,75.80
2018-12-21T02:30:12.078Z,82.40
2018-12-21T02:31:12.048Z,67.50
2018-12-21T02:32:12.022Z,67.70
2018-12-21T02:33:11.998Z,72.50
2018-12-21T02:34:11.961Z,75.60
2018-12-21T02:35:11.924Z,80.30
2018-12-21T02:36:11.896Z,73.20
2018-12-21T02:37:11.860Z,77.80
2018-12-21T02:38:11.832Z,73.30
2018-12-21T02:39:11.800Z,75.30
2018-12-21T02:40:11.768Z,78.40
2018-12-21T02:41:11.738Z,76.30
2018-12-21T02:42:11.706Z,74.10
2018-12-21T02:43:11.679Z,77.90
2018-12-21T02:44:11.643Z,75.80
2018-12-21T02:45:11.613Z,79.10
2018-12-21T02:46:11.584Z,81.10
2018-12-21T02:47:11.554Z,78.30
2018-12-21T02:48:11.522Z,80.30
2018-12-21T02:49:11.491Z,77.10
2018-12-21T02:50:11.459Z,83.90
2018-12-21T02:51:11.428Z,81.00
2018-12-21T02:52:11.397Z,79.20
2018-12-21T02:53:11.366Z,78.40
2018-12-21T02:54:11.337Z,75.20
2018-12-21T02:55:11.312Z,82.20
2018-12-21T02:56:11.274Z,83.80
2018-12-21T02:57:11.254Z,80.80
2018-12-21T02:58:11.212Z,80.50
2018-12-21T02:59:11.181Z,85.60
2018-12-21T03:00:11.149Z,83.40
2018-12-21T03:01:11.118Z,80.90
2018-12-21T03:02:11.091Z,80.00
2018-12-21T03:03:11.056Z,76.70
2018-12-21T03:04:11.031Z,82.60
2018-12-21T03:05:10.997Z,74.20
2018-12-21T03:06:10.964Z,74.20
2018-12-21T03:07:11.786Z,70.30
2018-12-21T03:08:10.901Z,69.60
2018-12-21T03:09:10.874Z,63.70
2018-12-21T03:10:10.839Z,67.20
2018-12-21T03:11:10.812Z,63.50
2018-12-21T03:12:10.782Z,61.60
2018-12-21T03:13:10.746Z,65.60
2018-12-21T03:14:10.723Z,64.90
2018-12-21T03:15:10.683Z,67.40
2018-12-21T03:16:10.653Z,62.50
2018-12-21T03:17:10.624Z,63.30
2018-12-21T03:18:10.591Z,64.90
2018-12-21T03:19:10.559Z,66.00
2018-12-21T03:20:10.530Z,58.50
2018-12-21T03:21:10.497Z,63.60
2018-12-21T03:22:14.657Z,61.80
2018-12-21T03:23:10.437Z,61.60
2018-12-21T03:24:10.409Z,58.70
2018-12-21T03:25:10.375Z,64.80
2018-12-21T03:26:10.342Z,58.20
2018-12-21T03:27:10.315Z,57.70
2018-12-21T03:28:10.286Z,57.70
2018-12-21T03:29:10.255Z,49.50
2018-12-21T03:30:10.226Z,50.80
2018-12-21T03:31:10.191Z,46.60
2018-12-21T03:32:10.159Z,54.40
2018-12-21T03:33:10.128Z,45.90
2018-12-21T03:34:10.101Z,46.20
2018-12-21T03:35:10.066Z,49.50
2018-12-21T03:36:10.066Z,49.80
2018-12-21T03:37:10.002Z,50.90
2018-12-21T03:38:09.977Z,45.70
2018-12-21T03:39:09.939Z,45.00
2018-12-21T03:40:09.911Z,49.60
2018-12-21T03:41:09.880Z,45.10
2018-12-21T03:42:09.846Z,46.90
2018-12-21T03:43:09.817Z,46.60
2018-12-21T03:44:09.784Z,46.10
2018-12-21T03:45:09.754Z,45.00
2018-12-21T03:46:09.725Z,37.70
2018-12-21T03:47:09.691Z,39.70
2018-12-21T03:48:09.664Z,38.90
2018-12-21T03:49:09.633Z,42.40
2018-12-21T03:50:09.605Z,34.00
2018-12-21T03:51:09.569Z,39.60
2018-12-21T03:52:09.542Z,42.10
2018-12-21T03:53:09.506Z,40.60
2018-12-21T03:54:09.481Z,43.60
2018-12-21T03:55:09.448Z,38.50
2018-12-21T03:56:09.413Z,41.80
2018-12-21T03:57:09.383Z,41.80
2018-12-21T03:58:09.351Z,36.30
2018-12-21T03:59:09.320Z,41.50
2018-12-21T04:00:09.289Z,36.00
2018-12-21T04:01:09.260Z,39.70
2018-12-21T04:02:09.228Z,39.40
2018-12-21T04:03:09.196Z,38.00
2018-12-21T04:04:09.165Z,40.90
2018-12-21T04:05:09.135Z,44.50
2018-12-21T04:06:09.103Z,41.50
2018-12-21T04:07:09.073Z,40.80
2018-12-21T04:08:09.041Z,40.80
2018-12-21T04:09:09.061Z,43.50
2018-12-21T04:10:08.978Z,36.70
2018-12-21T04:11:08.950Z,39.00
2018-12-21T04:12:08.915Z,42.00
2018-12-21T04:13:08.888Z,37.10
2018-12-21T04:14:08.857Z,36.40
2018-12-21T04:15:08.823Z,35.30
2018-12-21T04:16:08.794Z,31.90
2018-12-21T04:17:08.763Z,37.60
2018-12-21T04:18:08.734Z,34.40
2018-12-21T04:19:08.699Z,37.10
2018-12-21T04:20:08.667Z,36.30
2018-12-21T04:21:08.636Z,36.80
2018-12-21T04:22:08.612Z,35.30
2018-12-21T04:23:08.625Z,36.90
2018-12-21T04:24:08.544Z,34.70
2018-12-21T04:25:08.512Z,34.30
2018-12-21T04:26:08.482Z,34.10
2018-12-21T04:27:08.450Z,34.10
2018-12-21T04:28:08.418Z,32.70
2018-12-21T04:29:08.387Z,46.00
2018-12-21T04:30:08.363Z,30.90
2018-12-21T04:31:08.329Z,36.10
2018-12-21T04:32:08.300Z,35.80
2018-12-21T04:33:08.263Z,33.00
2018-12-21T04:34:08.253Z,29.30
2018-12-21T04:35:08.202Z,36.00
2018-12-21T04:36:08.172Z,30.40
2018-12-21T04:37:08.139Z,31.00
2018-12-21T04:38:08.110Z,35.00
2018-12-21T04:39:08.079Z,31.00
2018-12-21T04:40:08.047Z,33.80
2018-12-21T04:41:08.015Z,40.60
2018-12-21T04:42:07.983Z,39.60
2018-12-21T04:43:07.952Z,36.20
2018-12-21T04:44:07.923Z,38.80
2018-12-21T04:45:07.890Z,36.30
2018-12-21T04:46:07.858Z,33.50
2018-12-21T04:47:07.829Z,33.90
2018-12-21T04:48:07.796Z,34.60
2018-12-21T04:49:07.768Z,35.30
2018-12-21T04:50:07.732Z,33.60
2018-12-21T04:51:07.705Z,34.70
2018-12-21T04:52:07.670Z,33.90
2018-12-21T04:53:07.638Z,35.60
2018-12-21T04:54:07.615Z,33.00
2018-12-21T04:55:07.576Z,32.70
2018-12-21T04:56:07.546Z,33.00
2018-12-21T04:57:07.514Z,33.80
2018-12-21T04:58:07.484Z,32.80
2018-12-21T04:59:09.548Z,35.40
2018-12-21T05:00:07.430Z,35.30
2018-12-21T05:01:07.389Z,33.30
2018-12-21T05:02:07.359Z,28.60
2018-12-21T05:03:07.326Z,32.90
2018-12-21T05:04:07.296Z,26.80
2018-12-21T05:05:07.266Z,29.80
2018-12-21T05:06:07.237Z,35.80
2018-12-21T05:07:12.334Z,29.30
2018-12-21T05:08:07.169Z,31.20
2018-12-21T05:09:07.138Z,26.40
2018-12-21T05:10:07.109Z,30.10
2018-12-21T05:11:07.079Z,29.90
2018-12-21T05:12:07.046Z,30.30
2018-12-21T05:13:07.014Z,27.40
2018-12-21T05:14:08.074Z,28.80
2018-12-21T05:15:06.954Z,27.40
2018-12-21T05:16:06.923Z,25.60
2018-12-21T05:17:06.891Z,26.40
2018-12-21T05:18:06.861Z,28.20
2018-12-21T05:19:06.828Z,26.30
2018-12-21T05:20:06.796Z,28.40
2018-12-21T05:21:06.765Z,26.90
2018-12-21T05:22:06.736Z,25.20
2018-12-21T05:23:06.719Z,27.70
2018-12-21T05:24:06.671Z,21.60
2018-12-21T05:25:06.641Z,23.20
2018-12-21T05:26:06.609Z,20.60
2018-12-21T05:27:06.578Z,25.10
2018-12-21T05:28:06.546Z,23.80
2018-12-21T05:29:06.516Z,20.30
2018-12-21T05:30:06.486Z,24.60
2018-12-21T05:31:06.454Z,21.30
2018-12-21T05:32:06.426Z,23.00
2018-12-21T05:33:06.392Z,21.80
2018-12-21T05:34:06.360Z,24.10
2018-12-21T05:35:06.330Z,22.30
2018-12-21T05:36:06.298Z,21.80
2018-12-21T05:37:06.373Z,25.30
2018-12-21T05:38:06.236Z,19.60
2018-12-21T05:39:06.203Z,19.50
2018-12-21T05:40:06.174Z,19.10
2018-12-21T05:41:06.153Z,21.60
2018-12-21T05:42:06.113Z,18.80
2018-12-21T05:43:06.083Z,18.60
2018-12-21T05:44:06.049Z,20.10
2018-12-21T05:45:06.019Z,22.40
2018-12-21T05:46:05.988Z,22.00
2018-12-21T05:47:05.964Z,17.70
2018-12-21T05:48:05.933Z,19.10
2018-12-21T05:49:05.894Z,17.30
2018-12-21T05:50:05.862Z,17.90
2018-12-21T05:51:05.835Z,19.10
2018-12-21T05:52:05.808Z,20.30
2018-12-21T05:53:05.768Z,21.80
2018-12-21T05:54:05.738Z,22.50
2018-12-21T05:55:05.710Z,23.30
2018-12-21T05:56:05.677Z,20.80
2018-12-21T05:57:05.650Z,19.50
2018-12-21T05:58:05.614Z,22.40
2018-12-21T05:59:05.582Z,23.10
2018-12-21T06:00:05.551Z,21.80
2018-12-21T06:01:05.522Z,23.50
2018-12-21T06:02:05.609Z,24.50
2018-12-21T06:03:05.459Z,25.10
2018-12-21T06:04:05.428Z,21.90
2018-12-21T06:05:05.397Z,21.40
2018-12-21T06:06:05.370Z,22.40
2018-12-21T06:07:05.335Z,18.10
2018-12-21T06:08:05.301Z,21.70
2018-12-21T06:09:05.272Z,19.70
2018-12-21T06:10:05.241Z,21.30
2018-12-21T06:11:05.209Z,24.00
2018-12-21T06:12:05.183Z,21.30
2018-12-21T06:13:05.147Z,20.40
2018-12-21T06:14:05.115Z,25.10
2018-12-21T06:15:05.084Z,23.70
2018-12-21T06:16:05.054Z,21.20
2018-12-21T06:17:05.022Z,21.10
2018-12-21T06:18:04.991Z,22.20
2018-12-21T06:19:04.964Z,23.30
2018-12-21T06:20:04.928Z,23.10
2018-12-21T06:21:04.897Z,20.60
2018-12-21T06:22:04.871Z,22.40
2018-12-21T06:23:09.384Z,21.00
2018-12-21T06:24:04.817Z,25.50
2018-12-21T06:25:04.778Z,23.50
2018-12-21T06:26:04.750Z,27.70
2018-12-21T06:27:04.712Z,20.30
2018-12-21T06:28:04.684Z,22.90
2018-12-21T06:29:04.652Z,20.50
2018-12-21T06:30:04.625Z,24.70
2018-12-21T06:31:04.586Z,23.30
2018-12-21T06:32:04.556Z,21.60
2018-12-21T06:33:04.526Z,23.20
2018-12-21T06:34:04.496Z,23.80
2018-12-21T06:35:04.463Z,21.70
2018-12-21T06:36:04.437Z,21.60
2018-12-21T06:37:04.401Z,23.50
2018-12-21T06:38:04.391Z,19.80
2018-12-21T06:39:04.339Z,22.60
2018-12-21T06:40:04.308Z,22.00
2018-12-21T06:41:04.281Z,22.40
2018-12-21T06:42:04.264Z,24.90
2018-12-21T06:43:04.221Z,27.30
2018-12-21T06:44:04.183Z,18.90
2018-12-21T06:45:04.153Z,20.10
2018-12-21T06:46:04.201Z,17.90
2018-12-21T06:47:04.094Z,24.60
2018-12-21T06:48:04.059Z,19.30
2018-12-21T06:49:04.029Z,21.40
2018-12-21T06:50:03.999Z,19.20
2018-12-21T06:51:03.967Z,21.90
2018-12-21T06:52:03.936Z,23.20
2018-12-21T06:53:03.904Z,19.50
2018-12-21T06:54:03.874Z,19.90
2018-12-21T06:55:03.849Z,20.60
2018-12-21T06:56:03.812Z,19.70
2018-12-21T06:57:03.781Z,18.90
2018-12-21T06:58:03.749Z,19.60
2018-12-21T06:59:03.722Z,18.10
2018-12-21T07:00:03.692Z,20.50
2018-12-21T07:01:03.664Z,20.20
2018-12-21T07:02:03.629Z,17.00
2018-12-21T07:03:03.601Z,18.70
2018-12-21T07:04:03.563Z,23.10
2018-12-21T07:05:03.533Z,20.30
2018-12-21T07:06:03.502Z,17.10
2018-12-21T07:07:03.471Z,22.20
2018-12-21T07:08:03.440Z,19.50
2018-12-21T07:09:03.408Z,20.10
2018-12-21T07:10:03.382Z,18.50
2018-12-21T07:11:03.348Z,18.60
2018-12-21T07:12:03.321Z,20.70
2018-12-21T07:13:03.286Z,21.20
2018-12-21T07:14:03.255Z,18.80
2018-12-21T07:15:03.223Z,19.90
2018-12-21T07:16:03.191Z,17.30
2018-12-21T07:17:03.165Z,23.80
2018-12-21T07:18:03.131Z,19.60
2018-12-21T07:19:03.101Z,17.80
2018-12-21T07:20:03.067Z,19.80
2018-12-21T07:21:03.037Z,19.50
2018-12-21T07:22:03.011Z,21.10
2018-12-21T07:23:02.974Z,21.90
2018-12-21T07:24:02.944Z,23.20
2018-12-21T07:25:02.914Z,24.50
2018-12-21T07:26:02.886Z,18.70
2018-12-21T07:27:02.852Z,20.00
2018-12-21T07:28:02.826Z,20.60
2018-12-21T07:29:02.797Z,23.80
2018-12-21T07:30:02.777Z,18.60
2018-12-21T07:31:02.727Z,20.70
2018-12-21T07:32:02.698Z,19.90
2018-12-21T07:33:02.667Z,17.50
2018-12-21T07:34:02.637Z,20.30
2018-12-21T07:35:02.606Z,19.00
2018-12-21T07:36:08.365Z,17.30
2018-12-21T07:37:02.545Z,22.70
2018-12-21T07:38:02.512Z,18.30
2018-12-21T07:39:02.479Z,23.20
2018-12-21T07:40:02.454Z,18.80
2018-12-21T07:41:02.470Z,24.80
2018-12-21T07:42:02.390Z,19.30
2018-12-21T07:43:02.360Z,19.40
2018-12-21T07:44:02.332Z,18.70
2018-12-21T07:45:02.296Z,19.30
2018-12-21T07:46:02.266Z,20.60
2018-12-21T07:47:02.233Z,19.90
2018-12-21T07:48:02.203Z,19.00
2018-12-21T07:49:02.177Z,26.30
2018-12-21T07:50:02.143Z,25.00
2018-12-21T07:51:02.111Z,20.20
2018-12-21T07:52:02.085Z,20.70
2018-12-21T07:53:02.049Z,18.70
2018-12-21T07:54:02.018Z,23.40
2018-12-21T07:55:01.991Z,27.20
2018-12-21T07:56:01.967Z,24.80
2018-12-21T07:57:01.926Z,21.40
2018-12-21T07:58:01.904Z,21.60
2018-12-21T07:59:01.864Z,22.90
2018-12-21T08:00:01.926Z,30.80
2018-12-21T08:01:01.801Z,20.20
2018-12-21T08:02:01.772Z,18.20
2018-12-21T08:03:01.740Z,23.80
2018-12-21T08:04:01.728Z,23.40
2018-12-21T08:05:01.679Z,19.60
2018-12-21T08:06:01.651Z,19.50
2018-12-21T08:07:01.617Z,18.00
2018-12-21T08:08:01.586Z,21.00
2018-12-21T08:09:01.556Z,20.20
2018-12-21T08:10:01.525Z,19.60
2018-12-21T08:11:01.492Z,21.50
2018-12-21T08:12:01.467Z,15.50
2018-12-21T08:13:01.442Z,16.60
2018-12-21T08:14:01.402Z,18.60
2018-12-21T08:15:01.373Z,18.00
2018-12-21T08:16:01.343Z,19.00
2018-12-21T08:17:01.310Z,20.50
2018-12-21T08:18:01.279Z,19.60
2018-12-21T08:19:01.247Z,18.00
2018-12-21T08:20:01.220Z,18.50
2018-12-21T08:21:01.190Z,18.30
2018-12-21T08:22:01.232Z,19.20
2018-12-21T08:23:01.125Z,18.30
2018-12-21T08:24:01.096Z,22.00
2018-12-21T08:25:01.063Z,17.80
2018-12-21T08:26:01.033Z,18.70
2018-12-21T08:27:01.001Z,19.50
2018-12-21T08:28:00.970Z,18.70
2018-12-21T08:29:00.939Z,24.10
2018-12-21T08:30:00.909Z,14.80
2018-12-21T08:31:00.877Z,15.50
2018-12-21T08:32:00.848Z,18.00
2018-12-21T08:33:00.817Z,16.00
2018-12-21T08:34:00.785Z,14.10
2018-12-21T08:35:00.755Z,17.10
2018-12-21T08:36:00.724Z,13.90
2018-12-21T08:37:00.694Z,14.90
2018-12-21T08:38:00.664Z,14.80
2018-12-21T08:39:00.644Z,14.70
2018-12-21T08:40:00.604Z,13.90
2018-12-21T08:41:00.581Z,11.80
2018-12-21T08:42:00.542Z,16.50
2018-12-21T08:43:00.514Z,13.80
2018-12-21T08:44:00.480Z,11.40
2018-12-21T08:45:00.499Z,14.90
2018-12-21T08:46:00.420Z,18.40
2018-12-21T08:47:00.388Z,11.70
2018-12-21T08:48:00.360Z,14.90
2018-12-21T08:49:00.329Z,11.80
2018-12-21T08:50:00.301Z,12.40
2018-12-21T08:51:00.266Z,11.90
2018-12-21T08:52:00.242Z,13.70
2018-12-21T08:53:00.203Z,14.90
2018-12-21T08:54:00.174Z,14.70
2018-12-21T08:55:00.143Z,14.50
2018-12-21T08:56:00.115Z,15.40
2018-12-21T08:57:00.083Z,12.90
2018-12-21T08:58:00.051Z,13.90
2018-12-21T08:59:00.021Z,13.60
2018-12-21T09:00:00.003Z,15.80
2018-12-21T09:00:59.961Z,15.50
2018-12-21T09:01:59.930Z,13.70
2018-12-21T09:02:59.899Z,14.60
2018-12-21T09:03:59.874Z,16.30
2018-12-21T09:04:59.838Z,13.60
2018-12-21T09:05:59.807Z,13.70
2018-12-21T09:06:59.793Z,19.30
2018-12-21T09:07:59.762Z,12.50
2018-12-21T09:08:59.718Z,15.40
2018-12-21T09:09:59.685Z,16.70
2018-12-21T09:10:59.654Z,16.30
2018-12-21T09:11:59.627Z,17.50
2018-12-21T09:12:59.597Z,15.00
2018-12-21T09:13:59.570Z,13.70
2018-12-21T09:14:59.534Z,13.30
2018-12-21T09:15:59.502Z,11.80
2018-12-21T09:16:59.474Z,12.60
2018-12-21T09:17:59.446Z,17.00
2018-12-21T09:18:59.412Z,14.90
2018-12-21T09:19:59.388Z,16.70
2018-12-21T09:20:59.354Z,13.90
2018-12-21T09:21:59.321Z,14.70
2018-12-21T09:22:59.291Z,14.90
2018-12-21T09:24:01.179Z,15.20
2018-12-21T09:24:59.230Z,13.10
2018-12-21T09:25:59.202Z,16.00
2018-12-21T09:26:59.170Z,12.80
2018-12-21T09:27:59.143Z,12.50
2018-12-21T09:28:59.108Z,11.20
2018-12-21T09:29:59.078Z,16.10
2018-12-21T09:30:59.048Z,14.30
2018-12-21T09:32:04.960Z,16.10
2018-12-21T09:32:58.988Z,16.50
2018-12-21T09:33:58.958Z,14.20
2018-12-21T09:34:58.931Z,19.80
2018-12-21T09:35:58.897Z,16.30
2018-12-21T09:36:58.868Z,12.60
2018-12-21T09:37:58.836Z,18.00
2018-12-21T09:38:58.809Z,29.90
2018-12-21T09:39:58.776Z,25.00
2018-12-21T09:40:58.758Z,16.80
2018-12-21T09:41:58.719Z,19.10
2018-12-21T09:42:58.686Z,22.60
2018-12-21T09:43:58.670Z,14.10
2018-12-21T09:44:58.624Z,15.30
2018-12-21T09:45:58.602Z,17.80
2018-12-21T09:46:58.565Z,16.70
2018-12-21T09:47:58.534Z,16.40
2018-12-21T09:48:58.511Z,17.30
2018-12-21T09:49:58.477Z,19.40
2018-12-21T09:50:58.444Z,16.10
2018-12-21T09:51:58.414Z,12.60
2018-12-21T09:52:58.386Z,17.50
2018-12-21T09:53:58.355Z,15.30
2018-12-21T09:54:58.336Z,16.00
2018-12-21T09:55:58.291Z,12.00
2018-12-21T09:56:58.262Z,22.30
2018-12-21T09:57:58.235Z,15.20
2018-12-21T09:58:58.258Z,13.50
2018-12-21T09:59:58.174Z,15.60
2018-12-21T10:00:58.140Z,12.90
2018-12-21T10:01:58.112Z,21.40
2018-12-21T10:02:58.080Z,13.40
2018-12-21T10:03:58.048Z,15.10
2018-12-21T10:04:58.025Z,18.80
2018-12-21T10:05:57.989Z,17.10
2018-12-21T10:06:57.961Z,15.50
2018-12-21T10:07:57.939Z,12.60
2018-12-21T10:08:57.898Z,16.50
2018-12-21T10:09:57.870Z,16.70
2018-12-21T10:10:57.837Z,16.70
2018-12-21T10:11:57.807Z,16.20
2018-12-21T10:12:57.784Z,19.00
2018-12-21T10:13:57.751Z,13.60
2018-12-21T10:14:57.715Z,14.70
2018-12-21T10:15:57.686Z,15.80
2018-12-21T10:16:57.657Z,20.10
2018-12-21T10:17:57.628Z,19.10
2018-12-21T10:18:57.594Z,16.20
2018-12-21T10:19:57.564Z,13.40
2018-12-21T10:20:57.535Z,18.10
2018-12-21T10:21:57.506Z,17.50
2018-12-21T10:22:57.472Z,14.60
2018-12-21T10:23:57.446Z,15.00
2018-12-21T10:24:57.413Z,21.90
2018-12-21T10:25:57.386Z,13.70
2018-12-21T10:26:57.352Z,19.30
2018-12-21T10:27:57.336Z,17.20
2018-12-21T10:28:57.290Z,18.60
2018-12-21T10:29:57.260Z,18.40
2018-12-21T10:30:57.229Z,15.10
2018-12-21T10:31:57.198Z,16.80
2018-12-21T10:32:57.167Z,21.00
2018-12-21T10:33:57.138Z,15.80
2018-12-21T10:34:57.106Z,17.60
2018-12-21T10:35:57.079Z,15.80
2018-12-21T10:36:57.049Z,11.80
2018-12-21T10:37:57.015Z,15.10
2018-12-21T10:38:56.987Z,19.60
2018-12-21T10:39:56.954Z,17.10
2018-12-21T10:40:56.925Z,17.10
2018-12-21T10:41:56.895Z,18.30
2018-12-21T10:42:57.013Z,17.90
2018-12-21T10:43:56.834Z,19.80
2018-12-21T10:44:56.803Z,16.60
2018-12-21T10:45:56.774Z,20.50
2018-12-21T10:46:56.742Z,13.40
2018-12-21T10:47:56.715Z,15.50
2018-12-21T10:48:56.681Z,16.30
2018-12-21T10:49:56.652Z,17.60
2018-12-21T10:50:56.620Z,15.00
2018-12-21T10:51:56.591Z,18.50
2018-12-21T10:52:56.561Z,15.90
2018-12-21T10:53:56.530Z,14.70
2018-12-21T10:54:56.500Z,16.50
2018-12-21T10:55:56.468Z,12.00
2018-12-21T10:56:56.440Z,15.60
2018-12-21T10:57:56.428Z,14.80
2018-12-21T10:58:56.379Z,16.70
2018-12-21T10:59:56.350Z,16.80
2018-12-21T11:00:56.318Z,13.70
2018-12-21T11:01:56.352Z,14.50
2018-12-21T11:02:56.260Z,16.50
2018-12-21T11:03:56.225Z,12.60
2018-12-21T11:04:56.197Z,15.40
2018-12-21T11:05:56.170Z,17.70
2018-12-21T11:06:56.147Z,20.40
2018-12-21T11:07:56.104Z,16.10
2018-12-21T11:08:56.074Z,15.60
2018-12-21T11:09:56.044Z,14.60
2018-12-21T11:10:56.013Z,16.50
2018-12-21T11:11:55.981Z,13.80
2018-12-21T11:12:55.952Z,14.70
2018-12-21T11:13:55.922Z,17.50
2018-12-21T11:14:55.890Z,15.00
2018-12-21T11:15:55.860Z,14.30
2018-12-21T11:16:55.832Z,14.80
2018-12-21T11:17:55.802Z,16.20
2018-12-21T11:18:55.769Z,20.60
2018-12-21T11:19:55.737Z,15.70
2018-12-21T11:20:55.707Z,14.20
2018-12-21T11:21:55.681Z,18.70
2018-12-21T11:22:55.673Z,19.10
2018-12-21T11:23:55.616Z,16.60
2018-12-21T11:24:55.586Z,19.90
2018-12-21T11:25:55.555Z,20.60
2018-12-21T11:26:55.530Z,17.10
2018-12-21T11:27:55.495Z,18.60
2018-12-21T11:28:55.476Z,25.60
2018-12-21T11:29:55.529Z,18.30
2018-12-21T11:30:55.401Z,15.10
2018-12-21T11:31:55.373Z,17.50
2018-12-21T11:32:55.348Z,18.40
2018-12-21T11:33:55.310Z,16.60
2018-12-21T11:34:55.295Z,20.60
2018-12-21T11:35:55.250Z,18.40
2018-12-21T11:36:55.220Z,19.20
2018-12-21T11:37:55.188Z,21.00
2018-12-21T11:38:55.157Z,16.80
2018-12-21T11:39:55.125Z,16.70
2018-12-21T11:40:55.117Z,17.50
2018-12-21T11:41:55.151Z,16.70
2018-12-21T11:42:55.034Z,16.60
2018-12-21T11:43:55.005Z,18.40
2018-12-21T11:44:54.978Z,15.10
2018-12-21T11:45:54.942Z,14.10
2018-12-21T11:46:54.916Z,14.80
2018-12-21T11:47:54.881Z,14.70
2018-12-21T11:48:54.851Z,18.40
2018-12-21T11:49:54.822Z,13.30
2018-12-21T11:50:54.789Z,12.80
2018-12-21T11:51:54.759Z,13.30
2018-12-21T11:52:54.727Z,17.60
2018-12-21T11:53:54.700Z,16.50
2018-12-21T11:54:54.667Z,18.10
2018-12-21T11:55:54.635Z,15.40
2018-12-21T11:56:54.616Z,13.30
2018-12-21T11:57:54.579Z,15.90
2018-12-21T11:58:54.542Z,19.50
2018-12-21T11:59:54.512Z,15.20
2018-12-21T12:00:54.487Z,16.00
2018-12-21T12:01:54.460Z,18.00
2018-12-21T12:02:54.421Z,18.00
2018-12-21T12:03:54.393Z,21.70
2018-12-21T12:04:54.359Z,18.20
2018-12-21T12:05:54.331Z,16.60
2018-12-21T12:06:54.298Z,16.10
2018-12-21T12:07:54.268Z,19.10
2018-12-21T12:08:54.238Z,16.60
2018-12-21T12:09:54.206Z,16.20
2018-12-21T12:10:54.181Z,17.30
2018-12-21T12:11:54.165Z,16.20
2018-12-21T12:12:54.167Z,16.80
2018-12-21T12:13:54.104Z,14.90
2018-12-21T12:14:54.105Z,13.00
2018-12-21T12:15:54.024Z,13.90
2018-12-21T12:16:53.993Z,13.80
2018-12-21T12:17:53.961Z,14.50
2018-12-21T12:18:53.932Z,18.20
2018-12-21T12:19:53.901Z,12.20
2018-12-21T12:20:53.872Z,16.60
2018-12-21T12:21:53.840Z,14.00
2018-12-21T12:22:53.815Z,15.50
2018-12-21T12:23:53.787Z,12.60
2018-12-21T12:24:55.422Z,14.30
2018-12-21T12:25:53.716Z,13.30
2018-12-21T12:26:53.690Z,12.60
2018-12-21T12:27:53.655Z,11.40
2018-12-21T12:28:53.624Z,11.60
2018-12-21T12:29:53.597Z,13.90
2018-12-21T12:30:53.565Z,16.10
2018-12-21T12:31:53.533Z,14.90
2018-12-21T12:32:53.503Z,13.00
2018-12-21T12:33:53.474Z,12.00
2018-12-21T12:34:53.441Z,17.60
2018-12-21T12:35:53.417Z,12.70
2018-12-21T12:36:53.379Z,16.90
2018-12-21T12:37:53.350Z,14.60
2018-12-21T12:38:53.319Z,11.50
2018-12-21T12:39:53.289Z,10.50
2018-12-21T12:40:53.260Z,11.40
2018-12-21T12:41:53.227Z,17.20
2018-12-21T12:42:53.198Z,12.60
2018-12-21T12:43:53.167Z,13.00
2018-12-21T12:44:53.135Z,14.20
2018-12-21T12:45:53.107Z,13.80
2018-12-21T12:46:53.166Z,15.90
2018-12-21T12:47:53.041Z,15.30
2018-12-21T12:48:53.011Z,19.50
2018-12-21T12:49:52.982Z,18.40
2018-12-21T12:50:52.951Z,17.20
2018-12-21T12:51:52.920Z,18.10